createdAt,value
2019-04-21T00:01:48.956Z,18.00
2019-04-21T00:04:28.942Z,27.80
2019-04-21T00:07:02.971Z,18.95
2019-04-21T00:09:36.308Z,17.80
2019-04-21T00:12:02.574Z,17.50
2019-04-21T00:14:23.693Z,17.57
2019-04-21T00:16:50.311Z,18.20
2019-04-21T00:21:49.487Z,19.20
2019-04-21T00:24:29.024Z,19.90
2019-04-21T00:26:57.413Z,19.33
2019-04-21T00:29:33.865Z,19.40
2019-04-21T00:31:56.322Z,18.07
2019-04-21T00:34:11.158Z,18.40
2019-04-21T00:36:51.553Z,18.87
2019-04-21T00:39:36.990Z,20.65
2019-04-21T00:42:01.923Z,20.10
2019-04-21T00:44:22.446Z,18.80
2019-04-21T00:46:58.368Z,18.95
2019-04-21T00:49:27.022Z,21.25
2019-04-21T00:52:31.620Z,19.30
2019-04-21T00:55:05.914Z,18.93
2019-04-21T00:57:18.026Z,20.07
2019-04-21T00:59:46.486Z,19.60
2019-04-21T01:02:11.911Z,20.80
2019-04-21T01:04:42.840Z,19.80
2019-04-21T01:07:15.442Z,20.60
2019-04-21T01:09:36.930Z,21.00
2019-04-21T01:12:12.573Z,20.77
2019-04-21T01:14:49.982Z,19.50
2019-04-21T01:17:15.762Z,20.30
2019-04-21T01:19:37.337Z,20.20
2019-04-21T01:21:46.370Z,21.90
2019-04-21T01:24:20.815Z,21.90
2019-04-21T01:26:53.701Z,21.77
2019-04-21T01:29:27.706Z,21.03
2019-04-21T01:32:06.815Z,21.53
2019-04-21T01:34:37.693Z,21.20
2019-04-21T01:36:54.238Z,21.20
2019-04-21T01:39:34.894Z,21.17
2019-04-21T01:41:57.609Z,21.70
2019-04-21T01:44:30.892Z,20.15
2019-04-21T01:46:51.889Z,20.80
2019-04-21T01:49:16.999Z,21.40
2019-04-21T01:52:10.806Z,20.90
2019-04-21T01:54:48.076Z,20.23
2019-04-21T01:57:17.318Z,19.50
2019-04-21T01:59:44.835Z,21.20
2019-04-21T02:02:21.588Z,21.20
2019-04-21T02:04:47.377Z,19.97
2019-04-21T02:07:15.139Z,20.80
2019-04-21T02:09:43.327Z,20.40
2019-04-21T02:14:50.562Z,20.23
2019-04-21T02:17:14.659Z,20.27
2019-04-21T02:19:36.059Z,19.20
2019-04-21T02:22:06.373Z,20.60
2019-04-21T02:27:14.867Z,19.60
2019-04-21T02:29:40.933Z,18.83
2019-04-21T02:32:21.718Z,19.80
2019-04-21T02:39:49.179Z,20.07
2019-04-21T02:42:32.412Z,19.43
2019-04-21T02:44:43.436Z,20.50
2019-04-21T02:47:05.592Z,18.60
2019-04-21T02:49:56.897Z,19.30
2019-04-21T02:52:11.639Z,18.40
2019-04-21T02:57:09.167Z,19.27
2019-04-21T02:59:50.076Z,17.70
2019-04-21T03:02:34.897Z,18.93
2019-04-21T03:05:20.321Z,19.75
2019-04-21T03:10:18.245Z,19.33
2019-04-21T03:15:22.072Z,19.43
2019-04-21T03:23:02.016Z,19.05
2019-04-21T03:27:40.149Z,18.63
2019-04-21T03:30:14.249Z,16.73
2019-04-21T03:40:08.084Z,17.47
2019-04-21T03:45:06.642Z,16.40
2019-04-21T03:47:29.806Z,16.43
2019-04-21T04:00:44.928Z,16.60
2019-04-21T04:03:35.153Z,18.77
2019-04-21T04:08:49.995Z,17.53
2019-04-21T04:16:13.846Z,15.73
2019-04-21T04:26:19.108Z,15.10
2019-04-21T04:31:25.898Z,21.40
2019-04-21T04:34:04.529Z,17.40
2019-04-21T04:46:20.363Z,18.50
2019-04-21T04:51:19.336Z,18.40
2019-04-21T04:53:43.991Z,19.27
2019-04-21T04:56:47.595Z,19.80
2019-04-21T05:03:48.952Z,18.80
2019-04-21T05:09:03.392Z,17.40
2019-04-21T05:11:46.132Z,18.57
2019-04-21T05:13:55.466Z,18.20
2019-04-21T05:16:38.445Z,17.30
2019-04-21T05:21:31.439Z,16.45
2019-04-21T05:23:40.027Z,15.80
2019-04-21T05:26:02.549Z,15.43
2019-04-21T05:28:32.864Z,15.05
2019-04-21T05:31:18.426Z,17.73
2019-04-21T05:33:53.034Z,14.50
2019-04-21T05:36:52.034Z,14.87
2019-04-21T05:39:24.783Z,15.67
2019-04-21T05:41:47.477Z,13.93
2019-04-21T05:44:34.825Z,14.50
2019-04-21T05:47:09.626Z,14.97
2019-04-21T05:49:40.077Z,13.77
2019-04-21T05:52:04.074Z,14.87
2019-04-21T05:54:44.155Z,13.90
2019-04-21T05:57:20.573Z,14.87
2019-04-21T05:59:41.724Z,13.87
2019-04-21T06:02:21.001Z,13.10
2019-04-21T06:04:57.554Z,14.43
2019-04-21T06:07:12.182Z,14.70
2019-04-21T06:09:35.134Z,14.37
2019-04-21T06:12:02.925Z,14.87
2019-04-21T06:14:37.522Z,15.53
2019-04-21T06:17:01.519Z,16.37
2019-04-21T06:19:38.288Z,15.10
2019-04-21T06:22:03.565Z,16.40
2019-04-21T06:24:31.382Z,15.60
2019-04-21T06:27:09.507Z,15.73
2019-04-21T06:29:28.606Z,15.73
2019-04-21T06:34:45.604Z,19.60
2019-04-21T06:37:14.650Z,17.87
2019-04-21T06:39:48.221Z,19.10
2019-04-21T06:42:05.742Z,17.57
2019-04-21T06:44:33.767Z,18.07
2019-04-21T06:47:02.664Z,19.73
2019-04-21T06:49:25.061Z,18.13
2019-04-21T06:52:10.996Z,17.93
2019-04-21T06:54:32.356Z,20.57
2019-04-21T06:57:08.711Z,18.67
2019-04-21T06:59:29.411Z,19.10
2019-04-21T07:02:05.335Z,21.83
2019-04-21T07:04:26.753Z,22.57
2019-04-21T07:06:57.406Z,24.50
2019-04-21T07:09:25.476Z,22.70
2019-04-21T07:11:53.917Z,22.37
2019-04-21T07:19:30.709Z,23.23
2019-04-21T07:21:51.061Z,20.93
2019-04-21T07:26:51.556Z,23.47
2019-04-21T07:29:25.797Z,21.50
2019-04-21T07:31:57.182Z,21.73
2019-04-21T07:34:25.142Z,21.97
2019-04-21T07:36:51.473Z,20.90
2019-04-21T07:39:10.410Z,22.77
2019-04-21T07:41:42.151Z,23.97
2019-04-21T07:44:04.602Z,22.97
2019-04-21T07:46:33.894Z,21.53
2019-04-21T07:49:12.755Z,21.33
2019-04-21T07:52:18.929Z,23.93
2019-04-21T07:55:03.282Z,21.57
2019-04-21T07:57:13.002Z,24.20
2019-04-21T07:59:57.832Z,21.43
2019-04-21T08:02:15.939Z,21.53
2019-04-21T08:04:52.698Z,22.73
2019-04-21T08:07:15.100Z,21.83
2019-04-21T08:09:42.308Z,23.27
2019-04-21T08:12:04.084Z,23.67
2019-04-21T08:14:43.683Z,24.27
2019-04-21T08:17:14.230Z,23.90
2019-04-21T08:19:35.420Z,22.63
2019-04-21T08:22:12.555Z,22.53
2019-04-21T08:24:36.351Z,22.43
2019-04-21T08:27:19.066Z,21.63
2019-04-21T08:34:35.844Z,26.23
2019-04-21T15:11:09.722Z,15.00
2019-04-21T15:13:39.710Z,15.80
2019-04-21T15:16:09.148Z,15.30
2019-04-21T15:18:38.995Z,16.07
2019-04-21T15:21:08.181Z,16.63
2019-04-21T15:23:38.253Z,18.07
2019-04-21T15:26:08.299Z,15.90
2019-04-21T15:28:39.121Z,17.00
2019-04-21T15:31:15.222Z,14.70
2019-04-21T15:33:41.108Z,17.73
2019-04-21T15:36:11.596Z,17.27
2019-04-21T15:38:40.697Z,16.23
2019-04-21T15:41:10.847Z,19.47
2019-04-21T15:43:41.020Z,21.40
2019-04-21T15:46:10.988Z,18.60
2019-04-21T15:48:41.188Z,17.47
2019-04-21T15:51:11.088Z,19.00
2019-04-21T15:53:41.822Z,19.90
2019-04-21T15:56:15.570Z,18.07
2019-04-21T15:58:54.614Z,16.30
2019-04-21T16:01:40.888Z,18.60
2019-04-21T16:04:10.668Z,17.20
2019-04-21T16:06:41.300Z,17.27
2019-04-21T16:09:16.107Z,19.07
2019-04-21T16:11:42.138Z,17.23
2019-04-21T16:14:11.529Z,15.40
2019-04-21T16:16:41.205Z,16.50
2019-04-21T16:19:12.122Z,17.53
2019-04-21T16:21:44.411Z,16.77
2019-04-21T16:24:12.554Z,16.87
2019-04-21T16:26:42.673Z,16.73
2019-04-21T16:29:13.159Z,17.43
2019-04-21T16:31:42.751Z,16.70
2019-04-21T16:34:13.643Z,17.07
2019-04-21T16:36:43.550Z,17.60
2019-04-21T16:39:15.584Z,16.60
2019-04-21T16:41:52.095Z,16.33
2019-04-21T16:44:29.281Z,16.60
2019-04-21T16:47:05.749Z,16.43
2019-04-21T16:49:40.935Z,14.70
2019-04-21T16:52:23.918Z,16.93
2019-04-21T16:55:08.745Z,14.93
2019-04-21T16:58:22.137Z,15.57
2019-04-21T17:01:01.688Z,18.63
2019-04-21T17:03:26.561Z,15.30
2019-04-21T17:05:56.276Z,14.57
2019-04-21T17:08:26.166Z,14.20
2019-04-21T17:11:04.975Z,15.07
2019-04-21T17:13:27.221Z,15.03
2019-04-21T17:16:25.339Z,17.17
2019-04-21T17:18:43.539Z,15.07
2019-04-21T17:21:01.178Z,13.83
2019-04-21T17:23:29.447Z,13.53
2019-04-21T17:25:59.234Z,14.90
2019-04-21T17:28:29.891Z,16.33
2019-04-21T17:31:00.095Z,14.50
2019-04-21T17:33:33.757Z,11.93
2019-04-21T17:36:04.988Z,14.00
2019-04-21T17:38:34.566Z,11.57
2019-04-21T17:41:15.624Z,13.20
2019-04-21T17:43:34.703Z,12.07
2019-04-21T17:46:04.920Z,13.73
2019-04-21T17:48:32.466Z,12.27
2019-04-21T17:51:40.610Z,12.20
2019-04-21T17:54:33.811Z,18.67
2019-04-21T17:57:18.351Z,12.87
2019-04-21T18:02:10.977Z,12.37
2019-04-21T18:04:42.896Z,11.93
2019-04-21T18:07:26.516Z,12.33
2019-04-21T18:10:03.346Z,10.83
2019-04-21T18:12:24.988Z,12.10
2019-04-21T18:14:50.350Z,10.63
2019-04-21T18:17:08.612Z,12.60
2019-04-21T18:19:39.378Z,10.23
2019-04-21T18:22:43.200Z,10.20
2019-04-21T18:25:27.138Z,10.27
2019-04-21T18:27:42.666Z,11.33
2019-04-21T18:30:36.040Z,9.33
2019-04-21T18:33:05.936Z,9.27
2019-04-21T18:35:55.064Z,8.97
2019-04-21T18:38:53.085Z,10.57
2019-04-21T18:40:59.789Z,9.43
2019-04-21T18:46:42.611Z,9.73
2019-04-21T18:48:57.206Z,9.00
2019-04-21T18:52:02.244Z,8.53
2019-04-21T18:54:41.763Z,9.37
2019-04-21T18:57:04.441Z,9.10
2019-04-21T18:59:31.353Z,10.77
2019-04-21T19:01:59.951Z,9.83
2019-04-21T19:04:25.541Z,8.73
2019-04-21T19:07:06.706Z,9.63
2019-04-21T19:09:47.617Z,8.63
2019-04-21T19:12:08.728Z,10.20
2019-04-21T19:14:36.131Z,10.70
2019-04-21T19:17:27.602Z,9.33
2019-04-21T19:22:04.794Z,12.23
2019-04-21T19:24:59.431Z,9.67
2019-04-21T19:27:08.205Z,10.83
2019-04-21T19:34:18.783Z,10.00
2019-04-21T19:39:16.280Z,9.70
2019-04-21T19:41:52.069Z,11.07
2019-04-21T19:44:31.478Z,13.70
2019-04-21T19:46:55.537Z,10.13
2019-04-21T19:51:46.221Z,9.65
2019-04-21T19:54:15.546Z,12.13
2019-04-21T19:56:37.060Z,14.17
2019-04-21T19:59:03.504Z,9.60
2019-04-21T20:01:31.745Z,11.60
2019-04-21T20:04:01.024Z,10.00
2019-04-21T20:06:44.643Z,11.53
2019-04-21T20:09:19.939Z,9.57
2019-04-21T20:11:41.786Z,10.70
2019-04-21T20:14:37.653Z,10.17
2019-04-21T20:16:44.042Z,11.70
2019-04-21T20:18:57.434Z,9.75
2019-04-21T20:21:22.925Z,9.80
2019-04-21T20:23:51.721Z,10.90
2019-04-21T20:26:21.997Z,11.50
2019-04-21T20:28:59.287Z,11.93
2019-04-21T20:31:34.312Z,9.40
2019-04-21T20:34:06.267Z,11.75
2019-04-21T20:36:33.090Z,10.73
2019-04-21T20:38:52.961Z,10.50
2019-04-21T20:41:27.333Z,11.13
2019-04-21T20:44:01.045Z,11.00
2019-04-21T20:48:50.976Z,13.90
2019-04-21T20:51:30.001Z,13.55
2019-04-21T20:53:56.571Z,11.40
2019-04-21T20:56:17.138Z,10.53
2019-04-21T20:58:53.846Z,12.27
2019-04-21T21:03:47.870Z,12.73
2019-04-21T21:06:21.883Z,15.47
2019-04-21T21:08:50.002Z,13.40
2019-04-21T21:11:20.907Z,13.90
2019-04-21T21:13:49.225Z,18.43
2019-04-21T21:16:21.649Z,13.93
2019-04-21T21:19:08.185Z,13.23
2019-04-21T21:21:18.387Z,14.70
2019-04-21T21:23:42.828Z,13.70
2019-04-21T21:26:16.004Z,15.70
2019-04-21T21:28:40.250Z,14.93
2019-04-21T21:31:16.357Z,15.07
2019-04-21T21:33:53.519Z,14.07
2019-04-21T21:36:12.407Z,14.70
2019-04-21T21:38:39.296Z,15.87
2019-04-21T21:41:01.232Z,13.87
2019-04-21T21:43:23.246Z,14.93
2019-04-21T21:45:54.974Z,15.53
2019-04-21T21:48:31.717Z,14.30
2019-04-21T21:51:02.024Z,14.43
2019-04-21T21:53:25.427Z,17.53
2019-04-21T21:55:53.041Z,13.83
2019-04-21T21:58:29.872Z,16.83
2019-04-21T22:00:58.475Z,17.33
2019-04-21T22:03:31.774Z,17.43
2019-04-21T22:06:03.477Z,14.47
2019-04-21T22:08:28.305Z,15.63
2019-04-21T22:10:57.411Z,14.10
2019-04-21T22:13:35.984Z,14.30
2019-04-21T22:16:04.756Z,14.70
2019-04-21T22:18:45.463Z,15.73
2019-04-21T22:21:14.302Z,18.07
2019-04-21T22:23:39.989Z,15.87
2019-04-21T22:26:01.194Z,15.90
2019-04-21T22:28:31.603Z,16.17
2019-04-21T22:31:01.135Z,14.80
2019-04-21T22:33:38.673Z,16.45
2019-04-21T22:36:12.327Z,17.53
2019-04-21T22:38:46.162Z,16.43
2019-04-21T22:41:12.993Z,16.20
2019-04-21T22:43:40.622Z,16.75
2019-04-21T22:46:07.327Z,15.70
2019-04-21T22:48:38.714Z,18.67
2019-04-21T22:51:19.137Z,16.10
2019-04-21T22:53:43.669Z,20.77
2019-04-21T22:56:15.005Z,16.67
2019-04-21T22:58:44.044Z,21.80
2019-04-21T23:01:13.045Z,17.30
2019-04-21T23:03:49.193Z,17.17
2019-04-21T23:06:19.507Z,18.00
2019-04-21T23:08:45.799Z,17.20
2019-04-21T23:11:16.683Z,18.10
2019-04-21T23:13:54.982Z,18.20
2019-04-21T23:16:20.499Z,18.87
2019-04-21T23:19:09.742Z,19.67
2019-04-21T23:21:30.400Z,19.97
2019-04-21T23:24:11.568Z,19.73
2019-04-21T23:26:39.405Z,19.70
2019-04-21T23:29:15.498Z,18.83
2019-04-21T23:31:40.165Z,20.93
2019-04-21T23:33:54.665Z,20.57
2019-04-21T23:36:27.951Z,21.37
2019-04-21T23:38:56.760Z,21.33
2019-04-21T23:41:33.508Z,20.33
2019-04-21T23:44:04.519Z,20.97
2019-04-21T23:46:33.418Z,19.20
2019-04-21T23:49:16.334Z,21.97
2019-04-21T23:51:42.948Z,20.90
2019-04-21T23:54:01.806Z,20.07
2019-04-21T23:56:35.834Z,20.30
2019-04-21T23:59:05.136Z,21.43
